Time;durP1;ratioP1;P1;durP2;ratioP2;P2;SDS_P1;SDS_P2;PMS_P1;PMS_P2;Temp;Humidity;BMP_temperature;BMP_pressure;BME280_temperature;BME280_humidity;BME280_pressure;Samples;Min_cycle;Max_cycle;Signal;HPM_P1;HPM_P2
2022/03/29 00:01:55;;;;;;;15.17;11.73;;;;;;;;;;5072230;28;20598;-76
2022/03/29 00:04:22;;;;;;;16.97;12.33;;;;;;;;;;5070513;28;20258;-76
2022/03/29 00:06:48;;;;;;;18.00;12.50;;;;;;;;;;5072024;28;20186;-76
2022/03/29 00:09:14;;;;;;;17.47;12.43;;;;;;;;;;5052549;28;20200;-76
2022/03/29 00:11:41;;;;;;;20.73;13.50;;;;;;;;;;5073669;28;20671;-76
2022/03/29 00:14:07;;;;;;;16.57;13.17;;;;;;;;;;5063059;28;20200;-76
2022/03/29 00:16:34;;;;;;;16.97;12.90;;;;;;;;;;5069174;28;20579;-75
2022/03/29 00:19:44;;;;;;;17.03;12.20;;;;;;;;;;5068619;28;20188;-76
2022/03/29 00:22:29;;;;;;;18.77;13.07;;;;;;;;;;5062332;28;20209;-76
2022/03/29 00:24:55;;;;;;;14.83;12.97;;;;;;;;;;5069731;28;20181;-76
2022/03/29 00:27:21;;;;;;;18.03;12.80;;;;;;;;;;5073022;28;20752;-76
2022/03/29 00:29:47;;;;;;;18.83;13.30;;;;;;;;;;5069439;28;20188;-76
2022/03/29 00:32:14;;;;;;;15.97;13.03;;;;;;;;;;5069266;28;20228;-76
2022/03/29 00:34:41;;;;;;;19.63;14.20;;;;;;;;;;5068720;28;20207;-76
2022/03/29 00:37:07;;;;;;;18.57;14.03;;;;;;;;;;5069960;28;20209;-76
2022/03/29 00:39:33;;;;;;;19.47;13.70;;;;;;;;;;5069633;28;20208;-76
2022/03/29 00:42:03;;;;;;;16.00;12.50;;;;;;;;;;5068061;28;20205;-76
2022/03/29 00:44:31;;;;;;;17.43;13.63;;;;;;;;;;5068413;28;20194;-76
2022/03/29 00:46:58;;;;;;;19.73;14.93;;;;;;;;;;5065712;28;20606;-75
2022/03/29 00:49:24;;;;;;;21.03;15.90;;;;;;;;;;5070091;28;20619;-76
2022/03/29 00:51:55;;;;;;;18.70;15.00;;;;;;;;;;5067543;28;20246;-75
2022/03/29 00:54:21;;;;;;;18.70;13.70;;;;;;;;;;5069008;28;20220;-76
2022/03/29 00:56:48;;;;;;;18.67;14.37;;;;;;;;;;5067552;28;20301;-75
2022/03/29 00:59:14;;;;;;;18.67;13.90;;;;;;;;;;5069529;28;20176;-76
2022/03/29 01:01:40;;;;;;;17.37;13.73;;;;;;;;;;5070496;28;20197;-76
2022/03/29 01:04:07;;;;;;;20.07;13.43;;;;;;;;;;5068692;28;20216;-75
2022/03/29 01:06:33;;;;;;;19.23;14.20;;;;;;;;;;5071342;28;20185;-76
2022/03/29 01:08:59;;;;;;;21.67;15.70;;;;;;;;;;5068251;28;20188;-75
2022/03/29 01:11:27;;;;;;;21.23;15.20;;;;;;;;;;5066662;28;20204;-76
2022/03/29 01:13:53;;;;;;;20.23;14.10;;;;;;;;;;5070788;28;20205;-76
2022/03/29 01:19:07;;;;;;;18.83;14.87;;;;;;;;;;5063308;28;20181;-75
2022/03/29 01:21:36;;;;;;;18.13;14.43;;;;;;;;;;5069549;28;20355;-75
2022/03/29 01:24:02;;;;;;;20.97;14.37;;;;;;;;;;5069924;28;20208;-76
2022/03/29 01:26:30;;;;;;;20.13;14.23;;;;;;;;;;5064240;28;20178;-76
2022/03/29 01:28:56;;;;;;;20.00;15.10;;;;;;;;;;5070795;28;20263;-75
2022/03/29 01:31:23;;;;;;;16.07;13.33;;;;;;;;;;5069707;28;20193;-76
2022/03/29 01:33:49;;;;;;;18.37;12.93;;;;;;;;;;5071280;28;20205;-76
2022/03/29 01:36:15;;;;;;;17.90;13.17;;;;;;;;;;5071473;28;20246;-76
2022/03/29 01:38:41;;;;;;;17.93;14.13;;;;;;;;;;5064854;28;20646;-76
2022/03/29 01:41:07;;;;;;;18.83;13.60;;;;;;;;;;5064256;28;20177;-76
2022/03/29 01:43:34;;;;;;;20.50;13.37;;;;;;;;;;5066671;28;20196;-76
2022/03/29 01:46:00;;;;;;;20.83;14.07;;;;;;;;;;5068094;28;20558;-76
2022/03/29 01:48:27;;;;;;;19.23;13.53;;;;;;;;;;5060321;28;20192;-76
2022/03/29 01:50:53;;;;;;;18.13;13.70;;;;;;;;;;5065724;28;20262;-75
2022/03/29 01:53:26;;;;;;;21.77;14.83;;;;;;;;;;5062375;28;20238;-76
2022/03/29 01:55:59;;;;;;;20.80;14.67;;;;;;;;;;5066189;28;20173;-76
2022/03/29 01:58:26;;;;;;;19.40;14.97;;;;;;;;;;5069293;28;20270;-76
2022/03/29 02:00:52;;;;;;;17.90;13.70;;;;;;;;;;5065449;28;20212;-76
2022/03/29 02:03:19;;;;;;;21.00;14.10;;;;;;;;;;5068338;28;20210;-76
2022/03/29 02:05:45;;;;;;;17.53;13.30;;;;;;;;;;5066469;28;20174;-76
2022/03/29 02:08:11;;;;;;;24.63;17.03;;;;;;;;;;5064737;28;20192;-76
2022/03/29 02:10:38;;;;;;;22.97;16.10;;;;;;;;;;5064507;28;20185;-75
2022/03/29 02:13:04;;;;;;;21.17;14.60;;;;;;;;;;5067610;28;20199;-75
2022/03/29 02:15:31;;;;;;;20.93;13.70;;;;;;;;;;5070262;28;20227;-76
2022/03/29 02:17:57;;;;;;;19.03;13.60;;;;;;;;;;5068356;28;20200;-76
2022/03/29 02:20:26;;;;;;;17.83;13.87;;;;;;;;;;5052059;28;20207;-76
2022/03/29 02:22:52;;;;;;;20.30;14.47;;;;;;;;;;5067154;28;20199;-75
2022/03/29 02:25:18;;;;;;;19.33;14.70;;;;;;;;;;5066129;28;20272;-76
2022/03/29 02:27:45;;;;;;;18.80;14.63;;;;;;;;;;5067919;28;20534;-76
2022/03/29 02:30:13;;;;;;;20.33;14.63;;;;;;;;;;5067637;28;20577;-76
2022/03/29 02:32:39;;;;;;;21.70;14.43;;;;;;;;;;5067241;28;20238;-76
2022/03/29 02:35:06;;;;;;;19.40;14.47;;;;;;;;;;5069340;28;20181;-76
2022/03/29 02:37:32;;;;;;;19.70;14.40;;;;;;;;;;5067140;28;20235;-76
2022/03/29 02:39:58;;;;;;;20.17;14.53;;;;;;;;;;5067629;28;20263;-76
2022/03/29 02:42:25;;;;;;;20.73;15.33;;;;;;;;;;5066831;28;20259;-76
2022/03/29 02:44:51;;;;;;;19.67;14.37;;;;;;;;;;5066607;28;20189;-75
2022/03/29 02:47:17;;;;;;;17.70;13.70;;;;;;;;;;5069560;28;20523;-76
2022/03/29 02:49:43;;;;;;;20.63;14.70;;;;;;;;;;5068389;28;20196;-75
2022/03/29 02:52:10;;;;;;;22.17;14.20;;;;;;;;;;5063908;28;20191;-75
2022/03/29 02:54:36;;;;;;;24.67;16.90;;;;;;;;;;5067352;28;20227;-76
2022/03/29 02:57:03;;;;;;;23.77;15.30;;;;;;;;;;5069926;28;20213;-76
2022/03/29 02:59:29;;;;;;;18.10;14.60;;;;;;;;;;5052205;28;20185;-76
2022/03/29 03:01:56;;;;;;;19.17;14.73;;;;;;;;;;5068866;28;20191;-76
2022/03/29 03:04:22;;;;;;;19.03;14.67;;;;;;;;;;5067350;28;20283;-76
2022/03/29 03:06:48;;;;;;;22.27;15.57;;;;;;;;;;5063532;28;20190;-75
2022/03/29 03:09:14;;;;;;;23.20;17.10;;;;;;;;;;5064972;28;20269;-76
2022/03/29 03:11:41;;;;;;;21.97;15.97;;;;;;;;;;5067700;28;20271;-75
2022/03/29 03:14:07;;;;;;;23.57;16.53;;;14.90;53.80;;;;;;5064499;28;20211;-75
2022/03/29 03:16:33;;;;;;;26.13;17.53;;;9.60;99.90;;;;;;5065319;28;20259;-76
2022/03/29 03:18:58;;;;;;;22.23;15.63;;;9.40;99.90;;;;;;5066565;28;20180;-75
2022/03/29 03:21:24;;;;;;;20.57;15.33;;;9.30;99.70;;;;;;5065552;28;20526;-76
2022/03/29 03:23:51;;;;;;;20.77;15.40;;;9.30;99.90;;;;;;5068158;28;21273;-76
2022/03/29 03:26:17;;;;;;;19.37;14.57;;;9.30;99.90;;;;;;5070425;28;20188;-75
2022/03/29 03:28:42;;;;;;;21.80;15.00;;;9.20;99.90;;;;;;5070718;28;20184;-76
2022/03/29 03:31:08;;;;;;;19.83;13.97;;;;;;;;;;5070198;28;20184;-76
2022/03/29 03:33:35;;;;;;;22.83;14.40;;;;;;;;;;5068985;28;20660;-75
2022/03/29 03:36:01;;;;;;;19.33;14.67;;;;;;;;;;5068685;28;20519;-75
2022/03/29 03:38:27;;;;;;;21.77;13.70;;;;;;;;;;5069992;28;20236;-76
2022/03/29 03:40:53;;;;;;;20.50;14.73;;;;;;;;;;5069746;28;20189;-76
2022/03/29 03:43:19;;;;;;;19.87;13.43;;;;;;;;;;5068354;28;20196;-76
2022/03/29 03:45:46;;;;;;;17.97;13.17;;;;;;;;;;5070472;28;20181;-76
2022/03/29 03:48:12;;;;;;;17.93;13.47;;;;;;;;;;5070376;28;20181;-76
2022/03/29 03:50:38;;;;;;;20.30;13.50;;;;;;;;;;5085697;28;20188;-76
2022/03/29 03:53:05;;;;;;;19.97;14.80;;;;;;;;;;5071408;28;20285;-76
2022/03/29 03:55:31;;;;;;;19.47;14.33;;;;;;;;;;5069992;28;20189;-76
2022/03/29 03:57:57;;;;;;;20.70;15.00;;;;;;;;;;5070184;28;20317;-76
2022/03/29 04:00:24;;;;;;;20.60;14.33;;;;;;;;;;5069120;28;20242;-75
2022/03/29 04:02:50;;;;;;;20.10;14.03;;;;;;;;;;5066305;28;20625;-75
2022/03/29 04:05:17;;;;;;;19.20;14.27;;;;;;;;;;5069564;28;20186;-76
2022/03/29 04:07:43;;;;;;;22.20;15.73;;;;;;;;;;5068500;28;20218;-76
2022/03/29 04:10:10;;;;;;;21.53;14.10;;;;;;;;;;5073082;28;20185;-76
2022/03/29 04:12:36;;;;;;;26.00;15.70;;;;;;;;;;5067482;28;20190;-76
2022/03/29 04:15:03;;;;;;;22.97;16.47;;;;;;;;;;5070028;28;20212;-75
2022/03/29 04:17:31;;;;;;;21.07;15.53;;;;;;;;;;5072380;28;20865;-76
2022/03/29 04:19:58;;;;;;;24.57;17.27;;;;;;;;;;5064298;28;20216;-76
2022/03/29 04:22:25;;;;;;;22.83;15.53;;;;;;;;;;5071847;28;20205;-75
2022/03/29 04:24:51;;;;;;;26.53;15.77;;;;;;;;;;5060267;28;20189;-76
2022/03/29 04:27:18;;;;;;;22.90;15.20;;;;;;;;;;5068340;28;20186;-76
2022/03/29 04:29:44;;;;;;;19.73;15.43;;;;;;;;;;5067760;28;20219;-76
2022/03/29 04:32:10;;;;;;;18.00;14.17;;;;;;;;;;5069958;28;20185;-75
2022/03/29 04:34:36;;;;;;;19.73;13.63;;;;;;;;;;5070020;28;20215;-75
2022/03/29 04:37:03;;;;;;;20.27;14.13;;;;;;;;;;5050575;28;20271;-75
2022/03/29 04:39:32;;;;;;;20.27;13.47;;;;;;;;;;5062197;28;21132;-75
2022/03/29 04:41:58;;;;;;;22.73;14.90;;;;;;;;;;5063578;28;20196;-75
2022/03/29 04:44:25;;;;;;;19.87;14.57;;;;;;;;;;5068584;28;20561;-75
2022/03/29 04:46:51;;;;;;;55.80;30.73;;;;;;;;;;5064691;28;20570;-75
2022/03/29 04:49:17;;;;;;;99.60;48.57;;;;;;;;;;5061257;28;20235;-75
2022/03/29 04:51:43;;;;;;;55.00;32.63;;;;;;;;;;5069011;28;20182;-76
2022/03/29 04:54:10;;;;;;;46.93;29.30;;;;;;;;;;5071466;28;20680;-76
2022/03/29 04:56:36;;;;;;;35.20;24.70;;;;;;;;;;5068592;28;20189;-76
2022/03/29 04:59:02;;;;;;;32.93;19.90;;;;;;;;;;5050365;28;20218;-76
2022/03/29 05:01:28;;;;;;;32.67;20.00;;;;;;;;;;5066831;28;20194;-76
2022/03/29 05:03:54;;;;;;;24.07;17.73;;;;;;;;;;5050920;28;20205;-76
2022/03/29 05:06:20;;;;;;;34.87;22.43;;;;;;;;;;5069251;28;20235;-77
2022/03/29 05:08:46;;;;;;;42.83;23.73;;;;;;;;;;5068700;28;20197;-74
2022/03/29 05:11:13;;;;;;;25.20;17.17;;;;;;;;;;5070287;28;20664;-76
2022/03/29 05:13:39;;;;;;;19.87;15.03;;;;;;;;;;5067242;28;20193;-76
2022/03/29 05:16:05;;;;;;;20.93;14.23;;;;;;;;;;5072124;28;20537;-77
2022/03/29 05:18:31;;;;;;;20.87;14.97;;;;;;;;;;5070155;28;20279;-76
2022/03/29 05:20:58;;;;;;;20.53;14.40;;;;;;;;;;5065012;28;20189;-78
2022/03/29 05:23:24;;;;;;;24.73;14.97;;;;;;;;;;5067587;28;20197;-77
2022/03/29 05:25:50;;;;;;;21.10;14.03;;;;;;;;;;5069812;28;20195;-75
2022/03/29 05:28:16;;;;;;;21.63;15.17;;;;;;;;;;5067298;28;20224;-75
2022/03/29 05:30:42;;;;;;;20.37;14.87;;;;;;;;;;5071573;28;20169;-75
2022/03/29 05:33:15;;;;;;;21.57;14.10;;;;;;;;;;5069598;28;20243;-75
2022/03/29 05:35:43;;;;;;;24.90;14.53;;;;;;;;;;5064889;28;20217;-73
2022/03/29 05:38:09;;;;;;;21.30;14.43;;;;;;;;;;5067951;28;20229;-74
2022/03/29 05:40:35;;;;;;;19.63;13.80;;;;;;;;;;5066737;28;20712;-76
2022/03/29 05:43:01;;;;;;;18.50;13.87;;;;;;;;;;5070914;28;20204;-77
2022/03/29 05:45:30;;;;;;;21.37;15.23;;;;;;;;;;5045613;28;20190;-73
2022/03/29 05:50:42;;;;;;;24.50;15.40;;;;;;;;;;5066846;28;20718;-73
2022/03/29 05:53:08;;;;;;;22.97;14.93;;;;;;;;;;5068268;28;20208;-73
2022/03/29 05:55:34;;;;;;;22.00;14.97;;;;;;;;;;5068063;28;20220;-73
2022/03/29 05:58:01;;;;;;;22.80;15.23;;;;;;;;;;5065740;28;20205;-73
2022/03/29 06:00:29;;;;;;;24.63;15.37;;;;;;;;;;5068227;28;20735;-73
2022/03/29 06:02:56;;;;;;;24.77;16.13;;;;;;;;;;5070379;28;20628;-73
2022/03/29 06:05:22;;;;;;;20.33;14.70;;;;;;;;;;5069998;28;20181;-73
2022/03/29 06:07:50;;;;;;;21.40;16.50;;;;;;;;;;5069739;28;20184;-73
2022/03/29 06:10:16;;;;;;;21.70;14.77;;;;;;;;;;5070219;28;20220;-73
2022/03/29 06:12:46;;;;;;;23.47;16.47;;;;;;;;;;5070504;28;20664;-73
2022/03/29 06:15:12;;;;;;;20.23;16.07;;;;;;;;;;5069462;28;20189;-73
2022/03/29 06:17:39;;;;;;;22.37;15.43;;;;;;;;;;5071196;28;20209;-73
2022/03/29 06:20:06;;;;;;;25.40;16.43;;;;;;;;;;5071178;28;20174;-73
2022/03/29 06:22:37;;;;;;;25.40;16.23;;;;;;;;;;5069869;28;20260;-73
2022/03/29 06:25:04;;;;;;;23.37;16.33;;;;;;;;;;5068588;28;20619;-73
2022/03/29 06:27:30;;;;;;;26.93;16.20;;;;;;;;;;5070171;28;20211;-73
2022/03/29 06:29:57;;;;;;;22.93;15.93;;;;;;;;;;5069737;28;20215;-73
2022/03/29 06:32:24;;;;;;;23.03;15.57;;;;;;;;;;5069798;28;20556;-73
2022/03/29 06:34:50;;;;;;;21.83;15.63;;;;;;;;;;5070395;28;20185;-73
2022/03/29 06:37:16;;;;;;;24.73;15.70;;;;;;;;;;5069636;28;20228;-73
2022/03/29 06:39:43;;;;;;;22.63;16.60;;;;;;;;;;5071525;28;20223;-73
2022/03/29 06:42:09;;;;;;;21.40;16.30;;;;;;;;;;5069017;28;20220;-73
2022/03/29 06:44:35;;;;;;;23.30;16.93;;;;;;;;;;5068952;28;20196;-73
2022/03/29 06:47:02;;;;;;;24.70;17.40;;;;;;;;;;5068803;28;20192;-73
2022/03/29 06:49:29;;;;;;;26.93;19.83;;;;;;;;;;5070770;28;20227;-73
2022/03/29 06:51:55;;;;;;;25.73;19.10;;;;;;;;;;5067821;28;20176;-73
2022/03/29 06:54:22;;;;;;;29.30;20.90;;;;;;;;;;5069195;28;20216;-73
2022/03/29 06:56:48;;;;;;;27.70;19.77;;;;;;;;;;5069511;28;20211;-73
2022/03/29 06:59:14;;;;;;;23.90;18.97;;;;;;;;;;5069554;28;20611;-73
2022/03/29 07:01:40;;;;;;;28.93;18.13;;;;;;;;;;5068181;28;20193;-73
2022/03/29 07:04:08;;;;;;;26.90;18.63;;;;;;;;;;5061204;28;20225;-73
2022/03/29 07:06:35;;;;;;;22.40;16.97;;;;;;;;;;5069718;28;20173;-73
2022/03/29 07:11:46;;;;;;;27.30;18.13;;;;;;;;;;5065781;28;20185;-73
2022/03/29 07:14:13;;;;;;;24.27;17.53;;;;;;;;;;5063549;28;20189;-70
2022/03/29 07:16:41;;;;;;;23.40;17.00;;;;;;;;;;5062912;28;20202;-74
2022/03/29 07:19:10;;;;;;;23.10;17.80;;;;;;;;;;5067794;28;20181;-73
2022/03/29 07:21:42;;;;;;;23.10;17.87;;;;;;;;;;5066901;28;20189;-73
2022/03/29 07:24:09;;;;;;;24.33;17.63;;;;;;;;;;5065151;28;20277;-72
2022/03/29 07:26:36;;;;;;;25.73;17.27;;;;;;;;;;5060993;28;20177;-73
2022/03/29 07:29:04;;;;;;;22.97;17.83;;;;;;;;;;5062942;28;20173;-73
2022/03/29 07:31:31;;;;;;;25.70;18.33;;;;;;;;;;5059027;28;20200;-73
2022/03/29 07:33:58;;;;;;;28.20;18.67;;;;;;;;;;5063157;28;20219;-73
2022/03/29 07:36:24;;;;;;;23.93;17.93;;;;;;;;;;5062744;28;20188;-73
2022/03/29 07:38:50;;;;;;;21.40;16.80;;;;;;;;;;5061143;28;20185;-73
2022/03/29 07:41:17;;;;;;;25.10;17.40;;;;;;;;;;5069580;28;20185;-73
2022/03/29 07:43:44;;;;;;;23.63;17.27;;;;;;;;;;5069862;28;20204;-72
2022/03/29 07:46:10;;;;;;;32.63;18.63;;;;;;;;;;5069742;28;20526;-73
2022/03/29 07:48:36;;;;;;;23.53;16.60;;;;;;;;;;5065505;28;20189;-76
2022/03/29 07:51:05;;;;;;;25.43;16.80;;;;;;;;;;5065706;28;20782;-76
2022/03/29 07:53:31;;;;;;;25.03;17.57;;;;;;;;;;5067750;28;20267;-76
2022/03/29 07:55:57;;;;;;;23.80;16.63;;;;;;;;;;5067317;28;20177;-75
2022/03/29 07:58:23;;;;;;;26.33;18.20;;;;;;;;;;5073111;28;20729;-75
2022/03/29 08:00:51;;;;;;;25.20;17.17;;;;;;;;;;5064170;28;20643;-75
2022/03/29 08:03:18;;;;;;;23.03;17.87;;;;;;;;;;5068383;28;20211;-75
2022/03/29 08:05:45;;;;;;;22.07;17.07;;;;;;;;;;5065581;28;20290;-75
2022/03/29 08:08:13;;;;;;;24.17;17.47;;;;;;;;;;5064119;28;20177;-75
2022/03/29 08:10:39;;;;;;;23.03;18.03;;;;;;;;;;5070135;28;20596;-75
2022/03/29 08:13:10;;;;;;;22.90;17.40;;;;;;;;;;5070418;28;20197;-76
2022/03/29 08:15:39;;;;;;;25.60;17.23;;;;;;;;;;5072031;28;20193;-74
2022/03/29 08:18:06;;;;;;;21.77;16.87;;;;;;;;;;5070806;28;20267;-75
2022/03/29 08:20:32;;;;;;;22.60;16.93;;;;;;;;;;5070274;28;20169;-76
2022/03/29 08:23:00;;;;;;;22.53;17.00;;;;;;;;;;5071060;28;20192;-75
2022/03/29 08:25:27;;;;;;;21.23;16.63;;;;;;;;;;5071365;28;20680;-74
2022/03/29 08:27:55;;;;;;;20.70;16.30;;;;;;;;;;5070625;28;20177;-75
2022/03/29 08:30:21;;;;;;;22.57;16.90;;;;;;;;;;5072041;28;20201;-75
2022/03/29 08:32:48;;;;;;;22.13;15.97;;;;;;;;;;5072419;28;20208;-75
2022/03/29 08:35:14;;;;;;;25.40;17.07;;;;;;;;;;5072108;28;20177;-75
2022/03/29 08:37:40;;;;;;;23.03;17.30;;;;;;;;;;5071458;28;20216;-75
2022/03/29 08:40:11;;;;;;;24.57;17.60;;;;;;;;;;5073091;28;20181;-75
2022/03/29 08:42:37;;;;;;;22.37;16.47;;;;;;;;;;5070015;28;20176;-75
2022/03/29 08:45:07;;;;;;;22.10;16.70;;;;;;;;;;5071420;28;20185;-74
2022/03/29 08:47:34;;;;;;;27.97;17.87;;;;;;;;;;5067345;28;20196;-74
2022/03/29 08:50:02;;;;;;;21.97;16.60;;;;;;;;;;5071517;28;20193;-75
2022/03/29 08:52:28;;;;;;;29.30;17.70;;;;;;;;;;5076667;28;20488;-74
2022/03/29 08:54:55;;;;;;;23.07;17.27;;;;;;;;;;5068470;28;20243;-75
2022/03/29 08:57:21;;;;;;;25.10;17.70;;;;;;;;;;5072005;28;20201;-75
2022/03/29 08:59:47;;;;;;;24.73;17.40;;;;;;;;;;5068666;28;20338;-75
2022/03/29 09:02:16;;;;;;;28.07;18.23;;;;;;;;;;5069933;28;20185;-75
2022/03/29 09:04:43;;;;;;;23.90;18.40;;;;;;;;;;5069146;28;20189;-75
2022/03/29 09:07:09;;;;;;;23.53;18.07;;;;;;;;;;5055250;28;20187;-75
2022/03/29 09:09:44;;;;;;;23.33;18.53;;;;;;;;;;5067184;28;20799;-75
2022/03/29 09:12:11;;;;;;;26.97;19.17;;;;;;;;;;5068469;28;20729;-75
2022/03/29 09:14:50;;;;;;;23.37;18.33;;;;;;;;;;5045321;28;20216;-75
2022/03/29 09:17:45;;;;;;;23.13;17.70;;;;;;;;;;5070192;28;20204;-75
2022/03/29 09:20:12;;;;;;;25.10;18.87;;;;;;;;;;5063158;28;20242;-75
2022/03/29 09:22:40;;;;;;;31.90;20.40;;;;;;;;;;5069640;28;20264;-75
2022/03/29 09:25:07;;;;;;;28.37;20.60;;;;;;;;;;5069278;28;20181;-74
2022/03/29 09:27:49;;;;;;;29.33;21.27;;;;;;;;;;5069855;28;20181;-74
2022/03/29 09:30:15;;;;;;;27.63;20.13;;;;;;;;;;5067301;28;20181;-74
2022/03/29 09:32:58;;;;;;;26.33;18.10;;;;;;;;;;5070940;28;20205;-74
2022/03/29 09:35:25;;;;;;;28.37;20.47;;;;;;;;;;5078005;28;20284;-74
2022/03/29 09:37:51;;;;;;;24.23;19.50;;;;;;;;;;5069188;28;20225;-73
2022/03/29 09:40:17;;;;;;;24.93;19.07;;;;;;;;;;5070553;28;20173;-73
2022/03/29 09:43:02;;;;;;;26.70;19.23;;;;;;;;;;5065243;28;20212;-76
2022/03/29 09:45:41;;;;;;;28.17;20.33;;;;;;;;;;5069357;28;20242;-76
2022/03/29 09:48:28;;;;;;;27.87;20.67;;;;;;;;;;5064532;28;20254;-76
2022/03/29 09:50:55;;;;;;;31.10;21.10;;;;;;;;;;5069059;28;20551;-76
2022/03/29 09:53:35;;;;;;;31.83;22.37;;;;;;;;;;5070236;28;20201;-75
2022/03/29 09:56:01;;;;;;;34.97;24.63;;;;;;;;;;5071833;28;20679;-76
2022/03/29 09:58:28;;;;;;;31.57;23.13;;;;;;;;;;5071315;28;20205;-76
2022/03/29 10:00:57;;;;;;;31.23;22.57;;;;;;;;;;5068254;28;20204;-75
2022/03/29 10:03:26;;;;;;;30.87;22.50;;;;;;;;;;5065573;28;20246;-77
2022/03/29 10:05:54;;;;;;;33.60;23.03;;;;;;;;;;5071282;28;20188;-76
2022/03/29 10:11:10;;;;;;;34.97;23.63;;;;;;;;;;5066836;28;20620;-74
2022/03/29 10:13:36;;;;;;;31.77;22.37;;;;;;;;;;5070551;28;20205;-74
2022/03/29 10:16:03;;;;;;;31.23;23.87;;;;;;;;;;5071358;28;20206;-74
2022/03/29 10:18:29;;;;;;;34.57;24.40;;;;;;;;;;5065185;28;20566;-74
2022/03/29 10:20:56;;;;;;;33.57;24.83;;;;;;;;;;5070385;28;20186;-73
2022/03/29 10:23:24;;;;;;;33.60;24.37;;;;;;;;;;5066480;28;20201;-74
2022/03/29 10:25:53;;;;;;;36.47;23.53;;;;;;;;;;5063414;28;20200;-73
2022/03/29 10:28:22;;;;;;;31.50;23.03;;;;;;;;;;5062810;28;20193;-76
2022/03/29 10:30:48;;;;;;;30.83;22.93;;;;;;;;;;5068284;28;20179;-75
2022/03/29 10:33:23;;;;;;;40.20;26.13;;;;;;;;;;5067589;28;20779;-75
2022/03/29 10:36:02;;;;;;;33.03;24.87;;;;;;;;;;5065553;28;20184;-73
2022/03/29 10:38:46;;;;;;;34.30;24.23;;;;;;;;;;5070923;28;20208;-75
2022/03/29 10:41:28;;;;;;;34.27;23.37;;;;;;;;;;5070193;28;20173;-73
2022/03/29 10:43:54;;;;;;;36.63;25.80;;;;;;;;;;5070797;28;20207;-74
2022/03/29 10:46:26;;;;;;;42.10;26.47;;;;;;;;;;5063426;28;20205;-72
2022/03/29 10:49:15;;;;;;;35.63;25.97;;;;;;;;;;5067946;28;20200;-73
2022/03/29 10:51:41;;;;;;;43.40;26.63;;;;;;;;;;5062700;28;20188;-73
2022/03/29 10:54:26;;;;;;;38.93;26.53;;;;;;;;;;5068983;28;20294;-75
2022/03/29 10:56:57;;;;;;;33.90;22.73;;;;;;;;;;5051087;28;20190;-77
2022/03/29 10:59:23;;;;;;;33.07;23.87;;;;;;;;;;5058800;28;20184;-74
2022/03/29 11:02:09;;;;;;;34.43;23.60;;;;;;;;;;5065691;28;20278;-73
2022/03/29 11:04:35;;;;;;;37.90;24.30;;;;;;;;;;5067221;28;20724;-73
2022/03/29 11:07:08;;;;;;;41.37;26.47;;;;;;;;;;5068990;28;20184;-75
2022/03/29 11:09:35;;;;;;;32.10;24.23;;;;;;;;;;5046787;28;20192;-73
2022/03/29 11:12:01;;;;;;;34.30;24.20;;;;;;;;;;5060752;28;20191;-76
2022/03/29 11:14:33;;;;;;;35.83;25.63;;;;;;;;;;5069457;28;20679;-72
2022/03/29 11:17:09;;;;;;;34.33;25.93;;;;;;;;;;5068211;28;20541;-76
2022/03/29 11:19:43;;;;;;;35.13;24.80;;;;;;;;;;5068633;28;20200;-73
2022/03/29 11:22:28;;;;;;;31.80;23.80;;;;;;;;;;5069650;28;20200;-73
2022/03/29 11:24:55;;;;;;;32.30;24.57;;;;;;;;;;5063846;28;20189;-73
2022/03/29 11:27:22;;;;;;;39.20;25.47;;;;;;;;;;5066725;28;20184;-73
2022/03/29 11:29:49;;;;;;;35.23;25.00;;;;;;;;;;5068203;28;20224;-74
2022/03/29 11:32:17;;;;;;;33.50;23.37;;;;;;;;;;5066726;28;20189;-72
2022/03/29 11:34:44;;;;;;;34.40;24.57;;;;;;;;;;5060205;28;20212;-76
2022/03/29 11:37:28;;;;;;;34.17;24.83;;;;;;;;;;5067379;28;20208;-74
2022/03/29 11:39:57;;;;;;;30.93;22.83;;;;;;;;;;5067993;28;20177;-73
2022/03/29 11:42:23;;;;;;;37.63;23.47;;;;;;;;;;5065760;28;20269;-73
2022/03/29 11:44:51;;;;;;;38.53;25.60;;;;;;;;;;5071693;28;20188;-72
2022/03/29 11:47:19;;;;;;;35.07;24.27;;;;;;;;;;5069764;28;20208;-76
2022/03/29 11:49:48;;;;;;;34.80;24.13;;;;;;;;;;5060175;28;20197;-76
2022/03/29 11:52:17;;;;;;;32.17;22.57;;;;;;;;;;5064669;28;20184;-76
2022/03/29 11:54:46;;;;;;;32.27;22.73;;;;;;;;;;5069747;28;20258;-76
2022/03/29 11:57:17;;;;;;;31.97;21.83;;;;;;;;;;5080180;28;20197;-77
2022/03/29 11:59:44;;;;;;;32.93;23.03;;;;;;;;;;5070949;28;20219;-76
2022/03/29 12:02:14;;;;;;;31.50;21.60;;;;;;;;;;5068811;28;20685;-77
2022/03/29 12:04:43;;;;;;;32.97;22.30;;;;;;;;;;5071752;28;20192;-77
2022/03/29 12:07:10;;;;;;;29.97;21.20;;;;;;;;;;5071193;28;20181;-77
2022/03/29 12:09:38;;;;;;;31.70;23.33;;;;;;;;;;5069593;28;20200;-85
2022/03/29 12:12:05;;;;;;;30.70;21.97;;;;;;;;;;5045730;28;20713;-82
2022/03/29 12:14:31;;;;;;;33.77;23.03;;;;;;;;;;5069464;28;20692;-77
2022/03/29 12:17:03;;;;;;;36.60;24.80;;;;;;;;;;5070586;28;20724;-83
2022/03/29 12:19:30;;;;;;;32.40;23.50;;;;;;;;;;5086865;28;20562;-82
2022/03/29 12:21:59;;;;;;;34.67;23.57;;;;;;;;;;5071492;28;20677;-81
2022/03/29 12:24:46;;;;;;;37.63;23.87;;;;;;;;;;5077013;28;20226;-81
2022/03/29 12:27:17;;;;;;;32.70;22.03;;;;;;;;;;5074300;28;20239;-82
2022/03/29 12:29:53;;;;;;;30.67;22.13;;;;;;;;;;5071940;28;20189;-81
2022/03/29 12:32:21;;;;;;;36.23;23.80;;;;;;;;;;5038339;28;20610;-81
2022/03/29 12:34:57;;;;;;;31.73;21.70;;;;;;;;;;5080299;28;20556;-81
2022/03/29 12:37:27;;;;;;;33.00;23.00;;;;;;;;;;5062935;28;20580;-81
2022/03/29 12:40:10;;;;;;;34.70;22.97;;;;;;;;;;5075600;28;20547;-80
2022/03/29 12:42:40;;;;;;;33.07;22.13;;;;;;;;;;5075150;28;20653;-81
2022/03/29 12:45:11;;;;;;;31.90;21.17;;;;;;;;;;5072479;28;20193;-81
2022/03/29 12:47:38;;;;;;;31.40;21.33;;;;;;;;;;5070887;28;20224;-81
2022/03/29 12:50:05;;;;;;;32.17;21.47;;;;;;;;;;5071361;28;20185;-81
2022/03/29 12:52:39;;;;;;;35.70;22.67;;;;;;;;;;5071388;28;20652;-81
2022/03/29 12:55:08;;;;;;;37.97;24.13;;;;;;;;;;5071972;28;20210;-81
2022/03/29 12:57:36;;;;;;;37.67;24.50;;;;;;;;;;5071947;28;20304;-81
2022/03/29 13:00:19;;;;;;;36.53;23.63;;;;;;;;;;5071853;28;20200;-81
2022/03/29 13:02:49;;;;;;;34.50;23.73;;;;;;;;;;5070828;28;20236;-81
2022/03/29 13:05:19;;;;;;;36.63;22.83;;;;;;;;;;5070738;28;20544;-81
2022/03/29 13:07:49;;;;;;;33.37;23.03;;;;;;;;;;5084282;28;20264;-77
2022/03/29 13:10:24;;;;;;;37.03;23.63;;;;;;;;;;5075057;28;20181;-77
2022/03/29 13:12:58;;;;;;;33.57;22.50;;;;;;;;;;5069862;28;20211;-79
2022/03/29 13:15:44;;;;;;;35.80;23.23;;;;;;;;;;5069736;28;20188;-82
2022/03/29 13:18:22;;;;;;;37.93;24.47;;;;;;;;;;5066851;28;20204;-78
2022/03/29 13:20:49;;;;;;;36.23;24.70;;;;;;;;;;5068657;28;20177;-78
2022/03/29 13:23:45;;;;;;;36.97;24.27;;;;;;;;;;5065960;28;20300;-74
2022/03/29 13:26:12;;;;;;;36.53;24.13;;;;;;;;;;5060151;28;20193;-76
2022/03/29 13:28:39;;;;;;;30.70;20.57;;;;;;;;;;5068885;28;20181;-78
2022/03/29 13:31:09;;;;;;;33.23;22.00;;;;;;;;;;5087335;28;20220;-76
2022/03/29 13:33:35;;;;;;;33.97;22.20;;;;;;;;;;5065587;28;20200;-76
2022/03/29 13:36:06;;;;;;;34.33;22.33;;;;;;;;;;5066062;28;20192;-76
2022/03/29 13:38:32;;;;;;;35.03;22.00;;;;;;;;;;5081234;28;20826;-76
2022/03/29 13:40:59;;;;;;;35.83;23.53;;;;;;;;;;5074417;28;20193;-76
2022/03/29 13:43:26;;;;;;;37.13;25.10;;;;;;;;;;5068769;28;20216;-76
2022/03/29 13:45:52;;;;;;;37.23;24.07;;;;;;;;;;5067530;28;20192;-76
2022/03/29 13:48:21;;;;;;;36.20;23.87;;;;;;;;;;5066458;28;20320;-77
2022/03/29 13:50:47;;;;;;;37.20;24.00;;;;;;;;;;5065785;28;20187;-76
2022/03/29 13:53:20;;;;;;;36.47;23.53;;;;;;;;;;5065202;28;20205;-76
2022/03/29 13:55:49;;;;;;;38.87;24.97;;;;;;;;;;5067921;28;20189;-76
2022/03/29 13:58:17;;;;;;;40.67;24.70;;;;;;;;;;5066837;28;20362;-76
2022/03/29 14:00:43;;;;;;;37.23;23.33;;;;;;;;;;5067224;28;20192;-76
2022/03/29 14:03:10;;;;;;;31.73;21.63;;;;;;;;;;5065885;28;20220;-76
2022/03/29 14:05:42;;;;;;;32.87;21.60;;;;;;;;;;5077507;28;20391;-76
2022/03/29 14:08:10;;;;;;;32.47;21.13;;;;;;;;;;5063140;28;20269;-77
2022/03/29 14:10:37;;;;;;;38.17;22.37;;;;;;;;;;5066328;28;20186;-76
2022/03/29 14:13:04;;;;;;;36.17;22.80;;;;;;;;;;5066721;28;20673;-76
2022/03/29 14:15:31;;;;;;;30.80;19.93;;;;;;;;;;5070120;28;20177;-76
2022/03/29 14:17:57;;;;;;;33.17;20.73;;;;;;;;;;5073278;28;20216;-76
2022/03/29 14:20:24;;;;;;;29.90;20.23;;;;;;;;;;5064715;28;20189;-76
2022/03/29 14:22:51;;;;;;;30.73;20.87;;;;;;;;;;5064289;28;20266;-76
2022/03/29 14:25:21;;;;;;;30.50;20.03;;;;;;;;;;5062145;28;20183;-77
2022/03/29 14:27:50;;;;;;;35.73;21.47;;;;;;;;;;5066072;28;20181;-76
2022/03/29 14:30:19;;;;;;;34.27;20.50;;;;;;;;;;5066740;28;20185;-77
2022/03/29 14:32:46;;;;;;;30.60;19.97;;;;;;;;;;5065840;28;20202;-76